createdAt,value
2023-01-05T00:00:02.732Z,8.43
2023-01-05T00:02:31.244Z,8.13
2023-01-05T00:04:59.539Z,8.23
2023-01-05T00:07:27.953Z,7.38
2023-01-05T00:09:56.352Z,7.70
2023-01-05T00:12:55.131Z,7.53
2023-01-05T00:15:41.118Z,8.30
2023-01-05T00:18:29.029Z,6.57
2023-01-05T00:21:14.776Z,8.48
2023-01-05T00:23:43.158Z,7.35
2023-01-05T00:26:11.542Z,7.95
2023-01-05T00:28:41.161Z,7.28
2023-01-05T00:31:09.668Z,7.38
2023-01-05T00:33:37.950Z,7.15
2023-01-05T00:36:10.895Z,8.80
2023-01-05T00:38:39.777Z,8.35
2023-01-05T00:41:08.121Z,8.27
2023-01-05T00:43:36.497Z,8.80
2023-01-05T00:46:06.882Z,7.60
2023-01-05T00:48:35.621Z,7.15
2023-01-05T00:51:04.061Z,8.13
2023-01-05T00:53:32.393Z,8.20
2023-01-05T00:56:00.910Z,8.35
2023-01-05T00:58:29.189Z,8.20
2023-01-05T01:00:57.527Z,8.40
2023-01-05T01:03:27.275Z,9.02
2023-01-05T01:05:59.216Z,9.50
2023-01-05T01:08:27.590Z,7.85
2023-01-05T01:10:55.934Z,7.25
2023-01-05T01:13:25.627Z,7.22
2023-01-05T01:15:53.917Z,7.13
2023-01-05T01:18:23.244Z,7.45
2023-01-05T01:20:53.515Z,7.05
2023-01-05T01:23:21.946Z,8.30
2023-01-05T01:25:50.194Z,7.57
2023-01-05T01:28:18.491Z,7.65
2023-01-05T01:30:46.756Z,6.28
2023-01-05T01:33:15.105Z,7.28
2023-01-05T01:35:43.969Z,7.25
2023-01-05T01:38:13.686Z,7.15
2023-01-05T01:40:43.491Z,7.60
2023-01-05T01:43:15.064Z,7.22
2023-01-05T01:45:43.647Z,6.88
2023-01-05T01:48:17.334Z,8.27
2023-01-05T01:50:49.295Z,7.63
2023-01-05T01:53:22.783Z,6.95
2023-01-05T01:55:52.090Z,7.88
2023-01-05T01:58:24.495Z,7.55
2023-01-05T02:00:52.976Z,6.68
2023-01-05T02:03:21.455Z,7.90
2023-01-05T02:05:50.100Z,6.97
2023-01-05T02:08:25.575Z,8.27
2023-01-05T02:11:23.893Z,7.53
2023-01-05T02:14:22.733Z,7.18
2023-01-05T02:17:11.994Z,6.70
2023-01-05T02:20:24.857Z,7.25
2023-01-05T02:23:54.974Z,6.70
2023-01-05T02:27:10.847Z,7.28
2023-01-05T02:30:35.020Z,8.23
2023-01-05T02:33:15.671Z,7.07
2023-01-05T02:35:52.671Z,7.18
2023-01-05T02:38:30.530Z,6.85
2023-01-05T02:41:08.339Z,7.88
2023-01-05T02:43:36.927Z,7.78
2023-01-05T02:46:05.455Z,6.75
2023-01-05T02:48:35.966Z,7.53
2023-01-05T02:51:09.435Z,6.88
2023-01-05T02:53:42.719Z,6.43
2023-01-05T02:56:15.716Z,6.50
2023-01-05T02:58:50.027Z,6.07
2023-01-05T03:01:23.386Z,6.65
2023-01-05T03:03:58.886Z,6.80
2023-01-05T03:06:32.806Z,6.45
2023-01-05T03:09:04.824Z,7.18
2023-01-05T03:11:58.652Z,5.72
2023-01-05T03:14:33.798Z,6.13
2023-01-05T03:17:03.381Z,6.03
2023-01-05T03:19:40.858Z,7.32
2023-01-05T03:22:33.800Z,5.97
2023-01-05T03:25:19.693Z,6.88
2023-01-05T03:28:06.960Z,6.03
2023-01-05T03:31:04.220Z,5.78
2023-01-05T03:33:58.162Z,6.63
2023-01-05T03:36:31.636Z,5.93
2023-01-05T03:39:03.467Z,7.03
2023-01-05T03:41:32.569Z,6.22
2023-01-05T03:44:01.622Z,6.20
2023-01-05T03:46:30.163Z,6.63
2023-01-05T03:48:58.558Z,7.47
2023-01-05T03:51:28.441Z,7.63
2023-01-05T03:53:56.940Z,7.18
2023-01-05T03:56:25.191Z,6.93
2023-01-05T03:58:53.503Z,7.57
2023-01-05T04:01:21.821Z,6.75
2023-01-05T04:03:50.231Z,6.40
2023-01-05T04:06:18.635Z,7.97
2023-01-05T04:08:48.558Z,5.43
2023-01-05T04:11:19.892Z,6.90
2023-01-05T04:13:48.683Z,6.97
2023-01-05T04:16:17.683Z,6.18
2023-01-05T04:18:46.425Z,5.95
2023-01-05T04:21:17.574Z,7.05
2023-01-05T04:23:47.437Z,7.32
2023-01-05T04:26:15.744Z,7.28
2023-01-05T04:28:44.495Z,7.43
2023-01-05T04:31:12.872Z,7.45
2023-01-05T04:33:41.185Z,7.05
2023-01-05T04:36:10.058Z,5.45
2023-01-05T04:38:38.582Z,6.88
2023-01-05T04:41:08.474Z,6.55
2023-01-05T04:43:36.822Z,6.38
2023-01-05T04:46:05.544Z,6.43
2023-01-05T04:48:34.532Z,6.55
2023-01-05T04:51:02.946Z,5.90
2023-01-05T04:53:31.251Z,6.35
2023-01-05T04:55:59.707Z,7.15
2023-01-05T04:58:29.417Z,6.18
2023-01-05T05:00:57.954Z,6.57
2023-01-05T05:03:32.596Z,6.80
2023-01-05T05:06:01.699Z,6.70
2023-01-05T05:08:30.302Z,5.85
2023-01-05T05:10:59.868Z,7.50
2023-01-05T05:13:29.589Z,5.80
2023-01-05T05:15:57.922Z,7.07
2023-01-05T05:18:26.270Z,6.18
2023-01-05T05:20:55.876Z,6.43
2023-01-05T05:23:24.238Z,5.80
2023-01-05T05:25:53.475Z,6.03
2023-01-05T05:28:23.044Z,6.75
2023-01-05T05:30:53.419Z,6.20
2023-01-05T05:33:21.876Z,6.50
2023-01-05T05:35:50.261Z,6.88
2023-01-05T05:38:18.671Z,5.53
2023-01-05T05:40:49.631Z,5.72
2023-01-05T05:43:18.331Z,6.70
2023-01-05T05:45:50.705Z,5.63
2023-01-05T05:48:30.028Z,7.03
2023-01-05T05:50:58.878Z,7.35
2023-01-05T05:53:27.155Z,5.85
2023-01-05T05:55:55.655Z,6.93
2023-01-05T05:58:24.004Z,5.53
2023-01-05T06:00:52.701Z,7.10
2023-01-05T06:03:22.422Z,6.57
2023-01-05T06:05:50.915Z,6.03
2023-01-05T06:08:19.185Z,6.00
2023-01-05T06:10:47.432Z,6.35
2023-01-05T06:13:15.828Z,6.47
2023-01-05T06:15:44.774Z,7.88
2023-01-05T06:18:13.127Z,6.35
2023-01-05T06:20:43.413Z,6.15
2023-01-05T06:23:11.918Z,6.70
2023-01-05T06:25:40.228Z,6.72
2023-01-05T06:28:08.627Z,7.07
2023-01-05T06:30:37.089Z,6.47
2023-01-05T06:33:05.852Z,7.07
2023-01-05T06:35:34.265Z,6.20
2023-01-05T06:38:04.502Z,6.82
2023-01-05T06:40:32.802Z,7.10
2023-01-05T06:43:01.124Z,6.60
2023-01-05T06:45:29.461Z,6.60
2023-01-05T06:47:59.002Z,6.07
2023-01-05T06:50:27.364Z,6.95
2023-01-05T06:52:55.866Z,7.20
2023-01-05T06:55:25.845Z,7.95
2023-01-05T06:58:00.225Z,6.65
2023-01-05T07:00:30.219Z,7.38
2023-01-05T07:02:58.616Z,7.68
2023-01-05T07:05:26.966Z,7.13
2023-01-05T07:07:58.345Z,6.40
2023-01-05T07:10:28.399Z,6.88
2023-01-05T07:12:56.810Z,7.07
2023-01-05T07:15:25.364Z,6.85
2023-01-05T07:17:53.701Z,7.38
2023-01-05T07:20:22.091Z,7.50
2023-01-05T07:22:50.552Z,8.15
2023-01-05T07:25:19.030Z,5.88
2023-01-05T07:27:53.305Z,7.40
2023-01-05T07:30:21.601Z,6.93
2023-01-05T07:32:49.865Z,6.50
2023-01-05T07:35:18.414Z,6.32
2023-01-05T07:37:46.683Z,6.65
2023-01-05T07:40:15.046Z,7.35
2023-01-05T07:42:43.975Z,5.60
2023-01-05T07:45:14.919Z,5.93
2023-01-05T07:47:43.421Z,6.82
2023-01-05T07:50:11.812Z,6.60
2023-01-05T07:52:40.275Z,7.35
2023-01-05T07:55:09.608Z,6.93
2023-01-05T07:57:37.927Z,7.25
2023-01-05T08:00:08.138Z,6.63
2023-01-05T08:02:39.197Z,7.10
2023-01-05T08:05:08.208Z,7.78
2023-01-05T08:07:37.663Z,7.00
2023-01-05T08:10:25.175Z,6.35
2023-01-05T08:13:11.150Z,6.55
2023-01-05T08:15:39.661Z,7.28
2023-01-05T08:18:09.351Z,6.75
2023-01-05T08:20:37.738Z,6.25
2023-01-05T08:23:06.057Z,7.65
2023-01-05T08:25:34.808Z,7.38
2023-01-05T08:28:03.086Z,7.22
2023-01-05T08:30:34.890Z,6.07
2023-01-05T08:33:03.211Z,7.95
2023-01-05T08:35:33.008Z,7.50
2023-01-05T08:38:01.384Z,6.78
2023-01-05T08:40:29.792Z,6.95
2023-01-05T08:42:59.018Z,7.88
2023-01-05T08:45:27.341Z,6.55
2023-01-05T08:47:56.544Z,7.32
2023-01-05T08:50:25.184Z,7.32
2023-01-05T08:52:54.947Z,7.10
2023-01-05T08:55:24.219Z,7.30
2023-01-05T08:57:52.567Z,7.80
2023-01-05T09:00:23.069Z,6.30
2023-01-05T09:02:51.635Z,7.18
2023-01-05T09:05:20.274Z,7.85
2023-01-05T09:07:48.941Z,8.00
2023-01-05T09:10:18.899Z,6.68
2023-01-05T09:12:47.246Z,8.02
2023-01-05T09:15:15.685Z,7.43
2023-01-05T09:17:44.502Z,8.10
2023-01-05T09:20:13.208Z,6.90
2023-01-05T09:22:41.513Z,7.05
2023-01-05T09:25:11.255Z,7.82
2023-01-05T09:27:41.531Z,8.88
2023-01-05T09:30:11.572Z,7.63
2023-01-05T09:32:39.993Z,6.70
2023-01-05T09:35:09.484Z,6.90
2023-01-05T09:37:37.865Z,7.65
2023-01-05T09:40:08.167Z,7.95
2023-01-05T09:42:40.529Z,7.55
2023-01-05T09:45:11.398Z,8.35
2023-01-05T09:47:42.868Z,7.03
2023-01-05T09:50:21.789Z,7.88
2023-01-05T09:52:51.148Z,7.18
2023-01-05T09:55:21.896Z,8.13
2023-01-05T09:57:57.873Z,6.78
2023-01-05T10:00:28.359Z,7.35
2023-01-05T10:03:03.122Z,7.68
2023-01-05T10:05:33.952Z,8.35
2023-01-05T10:08:06.832Z,8.32
2023-01-05T10:11:07.357Z,7.63
2023-01-05T10:13:41.622Z,7.80
2023-01-05T10:16:16.426Z,7.70
2023-01-05T10:18:45.122Z,7.50
2023-01-05T10:21:21.793Z,7.35
2023-01-05T10:24:26.183Z,8.43
2023-01-05T10:27:28.274Z,7.68
2023-01-05T10:29:54.469Z,7.63
2023-01-05T10:32:27.116Z,8.63
2023-01-05T10:35:00.189Z,8.07
2023-01-05T10:38:03.935Z,7.35
2023-01-05T10:40:45.988Z,6.43
2023-01-05T10:43:43.541Z,8.13
2023-01-05T10:46:36.548Z,8.27
2023-01-05T10:49:03.389Z,7.10
2023-01-05T10:51:35.773Z,7.95
2023-01-05T10:54:05.330Z,7.93
2023-01-05T10:56:33.714Z,7.75
2023-01-05T10:59:11.074Z,7.00
2023-01-05T11:01:46.550Z,7.35
2023-01-05T11:04:33.944Z,9.18
2023-01-05T11:07:08.255Z,7.00
2023-01-05T11:09:51.658Z,6.95
2023-01-05T11:12:23.036Z,8.00
2023-01-05T11:14:58.807Z,8.48
2023-01-05T11:17:39.559Z,6.97
2023-01-05T11:20:18.235Z,6.63
2023-01-05T11:22:48.483Z,6.43
2023-01-05T11:25:30.725Z,6.95
2023-01-05T11:28:16.030Z,7.63
2023-01-05T11:30:59.622Z,6.53
2023-01-05T11:33:33.703Z,7.10
2023-01-05T11:36:03.848Z,8.18
2023-01-05T11:38:33.312Z,8.70
2023-01-05T11:41:02.482Z,7.75
2023-01-05T11:43:34.093Z,6.57
2023-01-05T11:46:06.201Z,7.70
2023-01-05T11:48:37.922Z,7.00
2023-01-05T11:51:06.849Z,7.32
2023-01-05T11:53:42.059Z,7.82
2023-01-05T11:56:23.157Z,7.85
2023-01-05T11:58:54.639Z,7.90
2023-01-05T12:02:03.699Z,6.82
2023-01-05T12:05:05.730Z,7.60
2023-01-05T12:07:38.193Z,6.35
2023-01-05T12:10:30.686Z,7.97
2023-01-05T12:13:06.853Z,8.55
2023-01-05T12:16:00.184Z,7.93
2023-01-05T12:19:27.670Z,7.97
2023-01-05T12:22:28.954Z,7.18
2023-01-05T12:25:12.195Z,6.70
2023-01-05T12:28:29.356Z,7.93
2023-01-05T12:34:41.744Z,7.95
2023-01-05T12:37:26.767Z,6.72
2023-01-05T12:40:29.570Z,7.30
2023-01-05T12:43:06.132Z,8.68
2023-01-05T12:45:53.573Z,7.28
2023-01-05T12:48:29.712Z,7.07
2023-01-05T12:51:09.606Z,7.13
2023-01-05T12:53:52.230Z,6.63
2023-01-05T12:56:28.924Z,8.35
2023-01-05T12:59:16.184Z,6.72
2023-01-05T13:01:53.441Z,6.85
2023-01-05T13:04:45.016Z,7.00
2023-01-05T13:07:30.091Z,7.55
2023-01-05T13:10:04.973Z,7.30
2023-01-05T13:12:35.495Z,6.97
2023-01-05T13:15:17.658Z,7.93
2023-01-05T13:17:50.492Z,7.65
2023-01-05T13:20:29.823Z,7.18
2023-01-05T13:23:05.396Z,7.07
2023-01-05T13:25:47.581Z,8.43
2023-01-05T13:28:21.009Z,8.77
2023-01-05T13:31:35.919Z,7.45
2023-01-05T13:34:55.512Z,7.43
2023-01-05T13:38:20.749Z,7.70
2023-01-05T13:41:04.038Z,7.35
2023-01-05T13:44:12.741Z,8.23
2023-01-05T13:47:17.624Z,8.35
2023-01-05T13:50:23.850Z,9.00
2023-01-05T13:53:08.109Z,8.70
2023-01-05T13:55:54.188Z,7.93
2023-01-05T14:01:10.677Z,7.72
2023-01-05T14:03:42.603Z,8.80
2023-01-05T14:06:21.501Z,7.38
2023-01-05T14:08:56.353Z,8.60
2023-01-05T14:11:28.339Z,8.63
2023-01-05T14:13:59.684Z,9.48
2023-01-05T14:16:56.528Z,7.25
2023-01-05T14:19:53.140Z,7.78
2023-01-05T14:22:37.159Z,7.18
2023-01-05T14:25:49.348Z,6.82
2023-01-05T14:28:47.532Z,6.70
2023-01-05T14:31:38.800Z,6.65
2023-01-05T14:34:15.160Z,6.82
2023-01-05T14:36:46.905Z,5.95
2023-01-05T14:39:29.898Z,5.55
2023-01-05T14:42:07.528Z,6.65
2023-01-05T14:44:45.511Z,6.45
2023-01-05T14:47:14.843Z,6.45
2023-01-05T14:49:53.673Z,6.55
2023-01-05T14:52:57.428Z,7.07
2023-01-05T14:55:39.266Z,5.65
2023-01-05T14:58:15.169Z,5.95
2023-01-05T15:01:04.113Z,5.88
2023-01-05T15:03:39.705Z,5.13
2023-01-05T15:06:11.771Z,8.50
2023-01-05T15:09:16.286Z,11.02
2023-01-05T15:12:19.461Z,11.18
2023-01-05T15:15:53.674Z,14.32
2023-01-05T15:19:03.842Z,8.57
2023-01-05T15:22:13.442Z,7.43
2023-01-05T15:26:02.987Z,7.82
2023-01-05T15:29:14.773Z,6.85
2023-01-05T15:31:48.949Z,7.22
2023-01-05T15:34:25.122Z,7.47
2023-01-05T15:37:01.159Z,9.73
2023-01-05T15:39:38.454Z,10.48
2023-01-05T15:42:10.559Z,11.15
2023-01-05T15:44:45.946Z,9.32
2023-01-05T15:47:17.067Z,9.65
2023-01-05T15:49:48.108Z,9.70
2023-01-05T15:52:31.328Z,9.90
2023-01-05T15:55:14.677Z,11.05
2023-01-05T15:57:43.625Z,10.30
2023-01-05T16:00:22.145Z,12.30
2023-01-05T16:02:50.801Z,10.63
2023-01-05T16:05:23.184Z,9.63
2023-01-05T16:08:00.096Z,8.52
2023-01-05T16:10:42.358Z,9.57
2023-01-05T16:13:16.708Z,9.93
2023-01-05T16:15:49.881Z,11.20
2023-01-05T16:18:25.216Z,10.50
2023-01-05T16:20:57.572Z,11.50
2023-01-05T16:23:36.555Z,12.77
2023-01-05T16:26:06.045Z,11.93
2023-01-05T16:28:34.906Z,11.82
2023-01-05T16:31:15.297Z,13.82
2023-01-05T16:33:45.418Z,13.82
2023-01-05T16:36:23.069Z,14.13
2023-01-05T16:38:56.577Z,15.82
2023-01-05T16:41:27.379Z,16.23
2023-01-05T16:43:59.146Z,15.48
2023-01-05T16:46:40.299Z,16.63
2023-01-05T16:49:43.495Z,15.27
2023-01-05T16:52:25.017Z,15.88
2023-01-05T16:55:27.635Z,17.10
2023-01-05T16:57:56.974Z,15.32
2023-01-05T17:00:40.523Z,17.13
2023-01-05T17:03:30.101Z,17.20
2023-01-05T17:05:59.626Z,17.13
2023-01-05T17:08:31.918Z,17.98
2023-01-05T17:11:03.192Z,19.90
2023-01-05T17:13:38.877Z,29.25
2023-01-05T17:16:08.497Z,18.05
2023-01-05T17:18:36.892Z,15.73
2023-01-05T17:21:08.208Z,13.95
2023-01-05T17:23:46.776Z,13.57
2023-01-05T17:26:20.176Z,11.80
2023-01-05T17:28:49.060Z,12.70
2023-01-05T17:31:17.405Z,11.48
2023-01-05T17:33:45.922Z,11.07
2023-01-05T17:38:46.666Z,10.75
2023-01-05T17:41:16.941Z,10.32
2023-01-05T17:43:45.937Z,11.52
2023-01-05T17:46:20.171Z,13.05
2023-01-05T17:48:49.450Z,13.70
2023-01-05T17:51:18.396Z,10.95
2023-01-05T17:53:48.171Z,9.50
2023-01-05T17:56:18.630Z,9.88
2023-01-05T17:58:48.454Z,9.93
2023-01-05T18:01:17.238Z,9.15
2023-01-05T18:06:19.012Z,9.20
2023-01-05T18:08:49.447Z,8.73
2023-01-05T18:11:18.069Z,9.07
2023-01-05T18:13:46.944Z,9.48
2023-01-05T18:16:15.735Z,10.50
2023-01-05T18:18:44.051Z,10.63
2023-01-05T18:21:12.504Z,11.65
2023-01-05T18:23:40.864Z,12.30
2023-01-05T18:26:11.842Z,13.25
2023-01-05T18:28:40.464Z,14.25
2023-01-05T18:31:13.522Z,16.02
2023-01-05T18:33:42.350Z,18.02
2023-01-05T18:36:14.315Z,17.25
2023-01-05T18:38:44.236Z,17.52
2023-01-05T18:41:14.575Z,16.65
2023-01-05T18:43:43.465Z,18.52
2023-01-05T18:46:11.810Z,18.15
2023-01-05T18:48:40.214Z,16.20
2023-01-05T18:51:09.976Z,17.25
2023-01-05T18:53:39.667Z,17.08
2023-01-05T18:56:09.366Z,17.55
2023-01-05T18:58:39.552Z,19.05
2023-01-05T19:01:13.729Z,17.75
2023-01-05T19:03:42.597Z,17.30
2023-01-05T19:06:15.805Z,16.08
2023-01-05T19:08:44.922Z,15.35
2023-01-05T19:11:17.116Z,13.80
2023-01-05T19:13:49.107Z,14.48
2023-01-05T19:16:18.491Z,12.80
2023-01-05T19:18:51.557Z,11.38
2023-01-05T19:21:20.192Z,11.95
2023-01-05T19:23:49.832Z,11.93
2023-01-05T19:26:18.220Z,10.43
2023-01-05T19:28:47.980Z,10.43
2023-01-05T19:31:17.061Z,9.48
2023-01-05T19:33:45.970Z,8.65
2023-01-05T19:36:18.152Z,9.70
2023-01-05T19:38:47.232Z,7.95
2023-01-05T19:41:18.136Z,9.38
2023-01-05T19:43:50.800Z,7.63
2023-01-05T19:46:22.557Z,8.63
2023-01-05T19:48:51.226Z,8.00
2023-01-05T19:51:23.900Z,7.45
2023-01-05T19:54:01.096Z,6.63
2023-01-05T19:56:31.995Z,5.57
2023-01-05T19:59:05.010Z,5.60
2023-01-05T20:01:36.027Z,6.10
2023-01-05T20:04:07.619Z,5.28
2023-01-05T20:06:39.453Z,5.88
2023-01-05T20:09:12.236Z,4.53
2023-01-05T20:11:44.215Z,4.97
2023-01-05T20:14:17.195Z,5.63
2023-01-05T20:16:49.519Z,5.00
2023-01-05T20:19:18.981Z,5.40
2023-01-05T20:21:47.714Z,4.95
2023-01-05T20:24:19.047Z,5.13
2023-01-05T20:26:48.365Z,4.68
2023-01-05T20:29:20.418Z,5.38
2023-01-05T20:31:55.498Z,4.20
2023-01-05T20:34:28.594Z,5.18
2023-01-05T20:36:57.028Z,6.03
2023-01-05T20:39:25.771Z,5.18
2023-01-05T20:41:55.210Z,6.32
2023-01-05T20:44:28.386Z,5.93
2023-01-05T20:46:57.038Z,5.95
2023-01-05T20:49:26.506Z,5.95
2023-01-05T20:51:55.372Z,5.47
2023-01-05T20:54:24.345Z,5.30
2023-01-05T20:56:52.985Z,4.63
2023-01-05T20:59:27.290Z,4.80
2023-01-05T21:01:56.434Z,3.95
2023-01-05T21:04:26.410Z,4.47
2023-01-05T21:06:55.687Z,4.75
2023-01-05T21:09:26.138Z,5.10
2023-01-05T21:11:54.405Z,3.67
2023-01-05T21:14:24.458Z,3.90
2023-01-05T21:16:55.120Z,3.95
2023-01-05T21:19:25.169Z,4.60
2023-01-05T21:21:55.880Z,5.30
2023-01-05T21:24:25.298Z,4.43
2023-01-05T21:26:54.309Z,6.07
2023-01-05T21:29:26.153Z,5.38
2023-01-05T21:31:56.373Z,5.53
2023-01-05T21:34:45.236Z,5.40
2023-01-05T21:37:13.786Z,5.47
2023-01-05T21:39:42.255Z,5.18
2023-01-05T21:42:29.120Z,4.97
2023-01-05T21:44:58.955Z,4.72
2023-01-05T21:47:27.747Z,4.95
2023-01-05T21:49:56.072Z,5.15
2023-01-05T21:52:42.143Z,4.50
2023-01-05T21:55:27.806Z,3.80
2023-01-05T21:57:56.168Z,4.20
2023-01-05T22:00:26.473Z,3.88
2023-01-05T22:02:55.406Z,3.95
2023-01-05T22:05:23.751Z,3.83
2023-01-05T22:07:52.810Z,3.72
2023-01-05T22:10:21.134Z,3.55
2023-01-05T22:12:49.482Z,3.83
2023-01-05T22:15:18.376Z,3.40
2023-01-05T22:17:48.624Z,3.13
2023-01-05T22:20:17.287Z,3.33
2023-01-05T22:22:45.723Z,3.15
2023-01-05T22:25:14.096Z,3.33
2023-01-05T22:27:42.740Z,3.75
2023-01-05T22:30:12.493Z,3.50
2023-01-05T22:32:40.809Z,3.05
2023-01-05T22:35:10.952Z,2.95
2023-01-05T22:37:42.183Z,2.80
2023-01-05T22:40:15.041Z,3.55
2023-01-05T22:42:43.478Z,3.15
2023-01-05T22:45:12.222Z,3.08
2023-01-05T22:47:40.617Z,3.00
2023-01-05T22:50:11.220Z,3.55
2023-01-05T22:52:42.623Z,3.83
2023-01-05T22:55:11.234Z,3.88
2023-01-05T22:57:39.753Z,3.20
2023-01-05T23:00:09.516Z,3.17
2023-01-05T23:02:39.511Z,2.45
2023-01-05T23:05:10.035Z,2.90
2023-01-05T23:07:38.575Z,2.53
2023-01-05T23:10:08.595Z,2.95
2023-01-05T23:12:38.286Z,2.20
2023-01-05T23:15:07.993Z,2.40
2023-01-05T23:17:36.636Z,2.25
2023-01-05T23:20:05.523Z,2.00
2023-01-05T23:22:36.489Z,1.60
2023-01-05T23:25:05.905Z,1.95
2023-01-05T23:27:34.302Z,2.10
2023-01-05T23:30:02.649Z,2.63
2023-01-05T23:32:31.016Z,2.88
2023-01-05T23:34:59.299Z,4.00
2023-01-05T23:37:30.603Z,3.85
2023-01-05T23:40:00.491Z,4.10
2023-01-05T23:42:47.384Z,4.45
2023-01-05T23:45:16.122Z,4.80
2023-01-05T23:47:44.406Z,4.50
2023-01-05T23:50:13.276Z,5.15
2023-01-05T23:52:41.617Z,5.13
2023-01-05T23:55:11.834Z,4.70
2023-01-05T23:57:40.170Z,5.35
